83TX weather

Public forecast

Using degrees Fahrenheit for public forecast. Weather courtesy of forecast.io.

Closest aviation weather report (METAR) to Texas A And M Flight Test Station Airport

Closest report is Easterwood Field, 6.8 nm (12.5 km) ESE. Retrieved 2020/08/15 03:53 UTC (17 minutes ago):

KCLL 150353Z AUTO 17013KT 10SM CLR 31/23 A2989 RMK AO2 SLP115 T03060233

Closest aviation forecast (TAF) to Texas A And M Flight Test Station Airport

Closest forecast is Easterwood Field, 6.8 nm (12.5 km) ESE. Retrieved 2020-08-15 00:22 UTC (4 hours ago):

TAF KCLL 142320Z 1500/1524 18011KT P6SM SKC FM150800 VRB05KT P6SM SKC FM151200 19005KT P6SM FEW008 SCT015 SCT120 FM151500 21011KT P6SM SCT120 FM152000 18009KT P6SM FEW045 SCT100